Time;durP1;ratioP1;P1;durP2;ratioP2;P2;SDS_P1;SDS_P2;PMS_P1;PMS_P2;Temp;Humidity;BMP_temperature;BMP_pressure;BME280_temperature;BME280_humidity;BME280_pressure;Samples;Min_cycle;Max_cycle;Signal;HPM_P1;HPM_P2
2021/08/25 00:01:57;;;;;;;13.20;10.20;;;;;;;16.15;86.86;97408.98;116146;1180;69815;-73
2021/08/25 00:04:27;;;;;;;12.80;10.80;;;;;;;16.15;86.55;97399.97;116143;1185;59558;-73
2021/08/25 00:06:56;;;;;;;12.40;10.70;;;;;;;16.14;86.75;97400.33;116191;1180;59540;-73
2021/08/25 00:09:26;;;;;;;11.40;9.40;;;;;;;16.12;86.49;97403.19;116102;1185;70693;-73
2021/08/25 00:11:56;;;;;;;11.30;9.10;;;;;;;16.10;86.20;97401.06;116202;1185;69024;-73
2021/08/25 00:14:25;;;;;;;11.10;8.90;;;;;;;16.08;87.35;97395.80;116201;1185;69031;-73
2021/08/25 00:16:55;;;;;;;10.10;8.40;;;;;;;16.05;86.79;97404.83;116214;1185;59513;-73
2021/08/25 00:19:24;;;;;;;10.90;9.10;;;;;;;16.04;86.11;97411.83;116247;1185;59552;-73
2021/08/25 00:21:54;;;;;;;12.90;8.90;;;;;;;16.04;85.90;97414.63;116147;1185;71183;-73
2021/08/25 00:24:25;;;;;;;11.90;9.30;;;;;;;16.04;87.53;97411.83;116148;1182;69151;-73
2021/08/25 00:26:54;;;;;;;11.80;9.90;;;;;;;16.03;86.91;97407.23;116203;1179;69262;-73
2021/08/25 00:29:25;;;;;;;10.70;9.10;;;;;;;16.03;86.37;97405.81;116216;1184;59972;-73
2021/08/25 00:31:54;;;;;;;11.80;8.70;;;;;;;16.04;86.70;97400.15;116240;1179;59533;-74
2021/08/25 00:34:24;;;;;;;11.00;8.20;;;;;;;16.04;87.35;97401.05;116184;1180;70600;-73
2021/08/25 00:36:53;;;;;;;10.60;8.80;;;;;;;16.05;87.80;97398.59;116203;1182;69170;-74
2021/08/25 00:39:23;;;;;;;11.20;8.80;;;;;;;16.05;86.73;97396.98;116197;1182;68621;-73
2021/08/25 00:41:52;;;;;;;12.10;8.40;;;;;;;16.06;87.39;97397.25;116121;1185;59517;-73
2021/08/25 00:44:22;;;;;;;14.10;8.40;;;;;;;16.08;87.49;97394.18;116190;1184;59494;-73
2021/08/25 00:46:51;;;;;;;12.70;8.20;;;;;;;16.08;87.53;97391.73;116197;1185;70592;-73
2021/08/25 00:49:21;;;;;;;9.50;8.10;;;;;;;16.08;87.57;97389.66;116173;1182;68523;-73
2021/08/25 00:51:51;;;;;;;11.50;8.00;;;;;;;16.08;87.36;97386.77;116195;1185;69224;-73
2021/08/25 00:54:22;;;;;;;10.00;7.50;;;;;;;16.09;87.36;97388.66;116220;1179;59555;-74
2021/08/25 00:56:52;;;;;;;10.20;8.40;;;;;;;16.09;86.93;97386.64;116183;1180;59499;-74
2021/08/25 00:59:24;;;;;;;13.80;10.80;;;;;;;16.10;86.59;97387.62;116194;1185;71114;-71
2021/08/25 01:02:07;;;;;;;16.00;12.60;;;;;;;16.10;86.71;97387.36;116171;1185;68255;-73
2021/08/25 01:04:47;;;;;;;16.40;12.00;;;;;;;16.09;86.33;97388.88;116215;1184;69236;-73
2021/08/25 01:07:17;;;;;;;15.00;12.20;;;;;;;16.08;86.39;97388.60;116207;1185;59615;-73
2021/08/25 01:09:47;;;;;;;15.70;11.30;;;;;;;16.09;86.78;97383.19;116192;1179;59493;-74
2021/08/25 01:12:21;;;;;;;11.80;9.30;;;;;;;16.10;86.94;97382.44;116172;1184;70403;-73
2021/08/25 01:14:52;;;;;;;12.70;9.90;;;;;;;16.10;86.33;97379.19;116133;1185;69207;-74
2021/08/25 01:17:23;;;;;;;;;;;;;;;16.10;86.25;97379.09;116143;1185;68646;-73
2021/08/25 01:20:01;;;;;;;11.50;9.00;;;;;;;16.09;87.69;97377.14;116116;1185;59530;-73
2021/08/25 01:22:31;;;;;;;12.80;9.60;;;;;;;16.08;87.60;97381.59;116222;1185;59556;-74
2021/08/25 01:25:01;;;;;;;12.30;9.60;;;;;;;16.08;87.49;97380.63;116308;1179;70423;-73
2021/08/25 01:27:33;;;;;;;12.10;10.20;;;;;;;16.09;87.33;97383.04;116325;1179;69377;-73
2021/08/25 01:30:04;;;;;;;12.30;9.80;;;;;;;16.10;87.54;97373.09;116226;1183;68437;-73
2021/08/25 01:32:35;;;;;;;12.40;10.10;;;;;;;16.09;88.26;97367.95;116174;1183;59556;-73
2021/08/25 01:35:05;;;;;;;10.90;9.60;;;;;;;16.09;88.35;97366.93;116289;1179;59552;-73
2021/08/25 01:37:35;;;;;;;;;;;;;;;16.09;88.59;97365.48;116123;1185;70540;-73
2021/08/25 01:40:05;;;;;;;12.50;10.40;;;;;;;16.09;88.25;97366.62;116286;1183;69195;-73
2021/08/25 01:42:35;;;;;;;14.40;11.00;;;;;;;16.11;87.76;97373.77;116264;1182;68459;-73
2021/08/25 01:45:06;;;;;;;15.60;11.60;;;;;;;16.13;87.25;97379.02;116225;1183;59506;-73
2021/08/25 01:47:36;;;;;;;17.90;13.80;;;;;;;16.14;86.90;97379.81;116277;1183;59501;-73
2021/08/25 01:50:07;;;;;;;15.40;12.90;;;;;;;16.16;86.85;97373.22;116226;1185;71162;-73
2021/08/25 01:52:38;;;;;;;18.60;13.10;;;;;;;16.17;87.11;97371.32;116096;1184;69003;-72
2021/08/25 01:55:08;;;;;;;20.30;14.40;;;;;;;16.19;87.12;97372.25;116316;1184;68242;-72
2021/08/25 01:57:38;;;;;;;19.80;15.40;;;;;;;16.21;87.24;97373.97;116283;1179;59552;-72
2021/08/25 02:00:09;;;;;;;20.30;16.00;;;;;;;16.24;86.87;97373.27;116294;1182;59546;-72
2021/08/25 02:02:38;;;;;;;21.40;15.20;;;;;;;16.25;86.82;97372.77;116242;1184;71586;-73
2021/08/25 02:05:09;;;;;;;17.60;14.60;;;;;;;16.26;87.15;97361.01;116256;1184;69165;-73
2021/08/25 02:07:40;;;;;;;16.60;14.60;;;;;;;16.25;87.10;97350.06;116280;1185;68407;-73
2021/08/25 02:10:10;;;;;;;17.10;15.20;;;;;;;16.22;87.24;97338.54;116053;1185;59495;-73
2021/08/25 02:12:39;;;;;;;19.30;15.30;;;;;;;16.20;86.86;97327.83;116321;1184;59582;-73
2021/08/25 02:15:10;;;;;;;18.60;15.30;;;;;;;16.16;86.91;97332.23;116098;1179;70406;-73
2021/08/25 02:17:42;;;;;;;18.70;15.40;;;;;;;16.14;86.84;97346.05;116263;1183;69164;-73
2021/08/25 02:20:12;;;;;;;17.20;14.30;;;;;;;16.14;86.83;97349.49;116255;1183;68414;-73
2021/08/25 02:22:41;;;;;;;17.50;14.20;;;;;;;16.14;86.58;97344.38;116232;1179;59549;-73
2021/08/25 02:25:12;;;;;;;18.50;14.30;;;;;;;16.15;86.67;97343.07;116133;1181;59504;-73
2021/08/25 02:27:42;;;;;;;22.70;16.00;;;;;;;16.16;86.84;97344.40;116230;1184;71381;-73
2021/08/25 02:30:11;;;;;;;18.30;15.70;;;;;;;16.15;86.98;97344.84;116256;1184;69233;-73
2021/08/25 02:32:42;;;;;;;20.60;15.70;;;;;;;16.14;86.67;97346.45;116181;1180;69021;-73
2021/08/25 02:35:12;;;;;;;19.40;15.10;;;;;;;16.12;86.82;97338.03;116236;1184;59553;-73
2021/08/25 02:37:41;;;;;;;18.20;14.90;;;;;;;16.12;87.42;97327.56;116244;1184;59482;-72
2021/08/25 02:40:11;;;;;;;17.70;15.60;;;;;;;16.14;87.19;97327.34;116192;1184;70354;-72
2021/08/25 02:42:42;;;;;;;18.50;15.20;;;;;;;16.15;87.13;97323.67;116270;1183;68462;-73
2021/08/25 02:45:11;;;;;;;17.30;15.30;;;;;;;16.16;87.39;97324.98;116099;1180;67481;-73
2021/08/25 02:47:42;;;;;;;;;;;;;;;16.17;86.91;97323.42;116199;1184;59518;-73
2021/08/25 02:50:12;;;;;;;16.50;14.50;;;;;;;16.16;86.78;97324.56;116083;1185;59614;-73
2021/08/25 02:52:41;;;;;;;16.90;14.20;;;;;;;16.16;86.46;97329.45;116266;1184;70553;-73
2021/08/25 02:55:11;;;;;;;19.80;14.40;;;;;;;16.16;86.74;97326.99;116240;1183;69129;-72
2021/08/25 02:57:40;;;;;;;17.80;14.20;;;;;;;16.14;87.22;97320.99;116245;1185;69629;-72
2021/08/25 03:00:12;;;;;;;14.50;12.90;;;;;;;16.12;87.32;97320.25;116225;1182;59543;-73
2021/08/25 03:02:42;;;;;;;16.50;13.30;;;;;;;16.10;86.73;97315.95;116293;1182;59599;-73
2021/08/25 03:05:12;;;;;;;14.70;12.40;;;;;;;16.10;86.75;97311.84;116208;1182;71323;-73
2021/08/25 03:07:42;;;;;;;14.90;12.70;;;;;;;16.09;87.49;97310.27;116261;1183;69325;-73
2021/08/25 03:10:12;;;;;;;13.60;11.80;;;;;;;16.08;86.92;97312.23;116249;1184;69232;-73
2021/08/25 03:12:42;;;;;;;13.00;11.30;;;;;;;16.07;86.40;97318.25;116236;1179;59533;-73
2021/08/25 03:15:12;;;;;;;14.20;10.20;;;;;;;16.07;86.35;97321.95;116225;1183;59578;-74
2021/08/25 03:17:42;;;;;;;14.90;10.50;;;;;;;16.06;85.93;97322.95;116087;1185;71192;-74
2021/08/25 03:20:13;;;;;;;16.30;10.00;;;;;;;16.05;85.99;97320.14;116268;1179;68973;-73
2021/08/25 03:22:43;;;;;;;13.40;9.60;;;;;;;16.03;86.11;97318.64;116234;1185;67643;-74
2021/08/25 03:25:13;;;;;;;12.20;10.50;;;;;;;15.99;86.80;97313.74;116125;1183;59526;-73
2021/08/25 03:27:43;;;;;;;11.20;8.90;;;;;;;15.95;86.36;97318.64;116280;1182;59518;-73
2021/08/25 03:30:12;;;;;;;11.90;9.60;;;;;;;15.93;86.09;97322.90;116269;1179;70548;-74
2021/08/25 03:32:42;;;;;;;12.00;9.10;;;;;;;15.92;86.06;97316.33;116261;1185;68794;-73
2021/08/25 03:35:12;;;;;;;15.30;9.70;;;;;;;15.91;85.89;97315.45;116249;1183;69205;-73
2021/08/25 03:37:42;;;;;;;14.50;9.70;;;;;;;15.89;85.87;97318.06;116232;1185;59574;-75
2021/08/25 03:40:15;;;;;;;11.70;9.20;;;;;;;15.88;86.00;97329.73;116050;1185;59558;-72
2021/08/25 03:42:45;;;;;;;11.20;8.70;;;;;;;15.87;86.05;97335.59;116196;1179;70460;-72
2021/08/25 03:45:15;;;;;;;;;;;;;;;15.86;85.88;97334.61;116295;1184;69153;-71
2021/08/25 03:47:45;;;;;;;10.00;8.10;;;;;;;15.85;85.66;97331.89;116146;1185;68334;-71
2021/08/25 03:50:15;;;;;;;10.60;7.70;;;;;;;15.84;85.53;97337.36;116207;1183;59542;-71
2021/08/25 03:52:44;;;;;;;12.30;7.50;;;;;;;15.82;85.35;97337.03;116217;1184;59506;-71
2021/08/25 03:55:14;;;;;;;9.70;8.20;;;;;;;15.82;85.34;97335.77;116260;1185;71373;-71
2021/08/25 03:57:43;;;;;;;9.80;8.00;;;;;;;15.82;85.44;97335.05;116251;1185;69158;-70
2021/08/25 04:00:13;;;;;;;12.00;7.60;;;;;;;15.82;85.50;97335.92;116242;1178;68288;-71
2021/08/25 04:02:43;;;;;;;9.60;7.50;;;;;;;15.81;85.57;97336.61;116207;1180;59549;-71
2021/08/25 04:05:12;;;;;;;8.30;7.10;;;;;;;15.82;85.35;97336.11;116120;1180;59557;-71
2021/08/25 04:07:41;;;;;;;9.40;7.30;;;;;;;15.83;85.37;97333.98;116199;1185;71254;-73
2021/08/25 04:10:11;;;;;;;10.30;7.80;;;;;;;15.82;85.54;97332.91;116295;1183;68236;-74
2021/08/25 04:12:40;;;;;;;9.40;7.00;;;;;;;15.83;85.31;97340.29;116225;1183;69250;-73
2021/08/25 04:15:10;;;;;;;10.00;7.10;;;;;;;15.84;85.18;97335.90;116190;1182;59534;-73
2021/08/25 04:17:39;;;;;;;10.70;7.20;;;;;;;15.86;85.31;97333.80;116224;1184;59501;-73
2021/08/25 04:20:09;;;;;;;10.80;8.60;;;;;;;15.86;85.41;97331.73;116185;1183;71349;-73
2021/08/25 04:22:39;;;;;;;11.20;7.90;;;;;;;15.89;85.48;97323.14;116249;1183;69575;-73
2021/08/25 04:25:09;;;;;;;12.20;8.90;;;;;;;15.90;85.90;97328.89;116151;1183;69302;-74
2021/08/25 04:27:38;;;;;;;12.90;7.90;;;;;;;15.89;85.55;97333.65;116228;1184;59555;-73
2021/08/25 04:30:08;;;;;;;11.70;7.80;;;;;;;15.90;85.03;97336.31;116121;1182;59478;-71
2021/08/25 04:32:37;;;;;;;10.10;7.40;;;;;;;15.91;84.81;97329.47;116193;1180;69579;-72
2021/08/25 04:35:07;;;;;;;12.10;7.90;;;;;;;15.94;84.89;97333.63;116192;1184;68486;-72
2021/08/25 04:37:36;;;;;;;13.70;7.90;;;;;;;15.96;85.11;97333.02;116162;1178;68461;-72
2021/08/25 04:40:06;;;;;;;9.00;7.30;;;;;;;15.99;85.36;97336.45;116163;1183;59530;-72
2021/08/25 04:42:36;;;;;;;9.70;7.50;;;;;;;16.03;85.14;97332.64;116193;1179;59637;-73
2021/08/25 04:45:06;;;;;;;8.80;7.40;;;;;;;16.03;84.54;97327.05;116224;1183;71314;-73
2021/08/25 04:47:35;;;;;;;9.80;6.90;;;;;;;16.08;84.41;97319.02;116236;1183;69169;-72
2021/08/25 04:50:04;;;;;;;10.90;6.80;;;;;;;16.14;84.18;97317.31;116216;1178;69184;-72
2021/08/25 04:52:34;;;;;;;9.00;7.40;;;;;;;16.19;84.15;97319.70;116125;1184;59533;-72
2021/08/25 04:55:03;;;;;;;10.30;7.80;;;;;;;16.24;84.21;97322.06;116215;1183;59492;-72
2021/08/25 04:57:33;;;;;;;10.90;7.90;;;;;;;16.27;84.38;97325.06;116213;1178;71380;-72
2021/08/25 05:00:03;;;;;;;10.30;8.00;;;;;;;16.30;84.15;97328.92;116256;1179;69306;-72
2021/08/25 05:02:34;;;;;;;;;;;;;;;16.32;84.01;97331.44;116244;1178;68425;-72
2021/08/25 05:05:05;;;;;;;11.50;7.70;;;;;;;16.31;84.00;97330.46;116198;1179;59553;-74
2021/08/25 05:07:35;;;;;;;11.30;7.70;;;;;;;16.30;84.14;97328.66;116236;1181;59473;-71
2021/08/25 05:10:05;;;;;;;12.20;7.90;;;;;;;16.27;84.19;97325.88;116210;1182;70773;-73
2021/08/25 05:12:34;;;;;;;10.40;8.30;;;;;;;16.26;84.09;97326.77;116152;1179;69202;-73
2021/08/25 05:15:05;;;;;;;11.70;8.30;;;;;;;16.26;84.07;97326.60;116194;1184;69062;-73
2021/08/25 05:17:34;;;;;;;12.50;8.60;;;;;;;16.26;84.04;97331.64;116263;1178;59492;-72
2021/08/25 05:20:06;;;;;;;15.40;8.60;;;;;;;16.27;83.93;97331.35;116238;1179;59533;-73
2021/08/25 05:22:36;;;;;;;11.50;8.00;;;;;;;16.27;83.86;97327.44;116263;1184;71530;-72
2021/08/25 05:25:06;;;;;;;13.20;8.50;;;;;;;16.28;83.80;97322.48;116235;1183;69162;-72
2021/08/25 05:27:35;;;;;;;10.70;8.50;;;;;;;16.31;83.91;97317.04;116242;1184;68475;-72
2021/08/25 05:30:05;;;;;;;11.50;7.70;;;;;;;16.38;83.68;97311.54;116219;1179;59542;-72
2021/08/25 05:32:34;;;;;;;12.40;8.90;;;;;;;16.41;83.77;97311.52;116232;1179;59997;-72
2021/08/25 05:35:04;;;;;;;12.40;8.90;;;;;;;16.46;83.38;97312.08;116275;1179;71180;-73
2021/08/25 05:37:33;;;;;;;11.70;8.30;;;;;;;16.50;82.80;97313.80;116309;1179;67492;-73
2021/08/25 05:40:02;;;;;;;12.80;7.90;;;;;;;16.55;82.77;97313.86;116231;1184;69262;-73
2021/08/25 05:42:31;;;;;;;10.70;8.20;;;;;;;16.60;82.53;97320.09;116171;1183;59548;-73
2021/08/25 05:45:00;;;;;;;11.80;8.30;;;;;;;16.66;82.57;97313.57;116184;1179;59488;-73
2021/08/25 05:47:29;;;;;;;10.10;7.70;;;;;;;16.72;82.36;97307.29;116195;1184;70581;-74
2021/08/25 05:49:59;;;;;;;10.00;7.90;;;;;;;16.80;82.63;97307.30;116194;1184;68506;-72
2021/08/25 05:52:30;;;;;;;10.00;7.40;;;;;;;16.95;82.37;97306.27;116139;1184;68461;-73
2021/08/25 05:54:59;;;;;;;9.80;7.40;;;;;;;17.16;82.11;97310.34;116199;1180;59536;-75
2021/08/25 05:57:28;;;;;;;8.40;7.10;;;;;;;17.38;81.42;97308.38;116231;1183;59511;-72
2021/08/25 05:59:57;;;;;;;9.60;6.70;;;;;;;17.53;80.32;97307.95;116205;1180;70952;-71
2021/08/25 06:02:26;;;;;;;12.50;7.20;;;;;;;17.69;80.35;97314.09;116214;1180;68185;-72
2021/08/25 06:04:56;;;;;;;9.00;6.90;;;;;;;17.77;78.95;97318.94;116267;1183;69485;-73
2021/08/25 06:07:25;;;;;;;9.30;6.70;;;;;;;17.88;78.91;97320.42;116213;1182;59501;-73
2021/08/25 06:09:54;;;;;;;11.80;7.00;;;;;;;17.97;78.54;97320.64;116143;1180;59561;-72
2021/08/25 06:12:23;;;;;;;8.70;6.30;;;;;;;18.02;76.64;97326.23;116210;1179;70700;-73
2021/08/25 06:14:52;;;;;;;9.30;7.10;;;;;;;18.06;77.21;97332.03;116197;1183;69215;-73
2021/08/25 06:17:21;;;;;;;12.50;7.20;;;;;;;18.08;77.41;97332.36;116136;1183;69244;-73
2021/08/25 06:19:51;;;;;;;11.40;7.00;;;;;;;18.11;77.67;97331.36;116157;1182;59560;-73
2021/08/25 06:22:20;;;;;;;9.70;7.40;;;;;;;18.12;77.48;97329.80;116231;1183;59533;-72
2021/08/25 06:24:49;;;;;;;10.50;7.50;;;;;;;18.05;77.59;97331.77;116160;1184;71439;-72
2021/08/25 06:27:18;;;;;;;9.20;7.40;;;;;;;18.02;77.57;97331.08;116166;1184;69020;-73
2021/08/25 06:29:46;;;;;;;9.50;7.30;;;;;;;17.98;77.92;97333.08;116184;1182;69813;-73
2021/08/25 06:32:16;;;;;;;11.60;7.40;;;;;;;17.95;77.85;97335.84;116198;1184;59558;-73
2021/08/25 06:34:45;;;;;;;11.60;7.20;;;;;;;17.88;77.85;97327.40;116286;1184;59468;-72
2021/08/25 06:37:14;;;;;;;9.30;7.20;;;;;;;17.79;77.61;97329.81;116299;1184;71079;-73
2021/08/25 06:39:44;;;;;;;12.70;7.30;;;;;;;17.81;77.97;97330.48;116138;1179;69235;-73
2021/08/25 06:42:14;;;;;;;10.00;7.90;;;;;;;17.80;78.06;97329.91;116201;1182;68443;-72
2021/08/25 06:44:51;;;;;;;11.60;6.90;;;;;;;17.78;78.19;97333.87;116272;1179;59891;-73
2021/08/25 06:47:43;;;;;;;9.40;7.00;;;;;;;17.80;77.97;97329.77;116300;1180;59596;-72
2021/08/25 06:50:14;;;;;;;18.00;7.30;;;;;;;17.79;77.99;97329.25;116213;1184;70553;-73
2021/08/25 06:52:45;;;;;;;10.60;7.40;;;;;;;17.85;78.11;97329.21;116241;1180;68399;-73
2021/08/25 06:55:16;;;;;;;10.50;7.80;;;;;;;17.90;77.97;97322.33;116165;1184;68268;-73
2021/08/25 06:57:46;;;;;;;14.10;7.40;;;;;;;17.96;77.79;97318.84;116306;1183;59542;-72
2021/08/25 07:00:18;;;;;;;11.20;7.70;;;;;;;18.06;77.63;97323.27;116161;1179;59538;-72
2021/08/25 07:02:49;;;;;;;10.30;7.30;;;;;;;18.19;77.52;97326.06;116112;1183;70753;-73
2021/08/25 07:05:24;;;;;;;9.40;7.30;;;;;;;18.36;77.31;97323.89;116205;1183;68472;-73
2021/08/25 07:07:57;;;;;;;10.40;6.80;;;;;;;18.57;77.18;97323.16;116072;1179;69394;-73
2021/08/25 07:10:28;;;;;;;10.70;7.10;;;;;;;18.72;75.42;97325.00;116222;1179;59554;-71
2021/08/25 07:12:59;;;;;;;9.90;7.30;;;;;;;18.86;75.30;97323.86;116184;1180;59521;-72
2021/08/25 07:15:30;;;;;;;14.10;7.50;;;;;;;18.97;74.86;97319.00;116231;1179;70385;-72
2021/08/25 07:18:01;;;;;;;11.30;7.60;;;;;;;19.01;74.60;97317.04;116187;1179;68398;-73
2021/08/25 07:20:46;;;;;;;9.40;6.80;;;;;;;18.99;74.41;97315.95;116199;1183;69125;-72
2021/08/25 07:23:17;;;;;;;10.80;7.30;;;;;;;19.03;74.44;97324.76;116171;1183;59572;-74
2021/08/25 07:25:48;;;;;;;10.40;7.70;;;;;;;19.04;74.35;97329.77;116224;1183;59953;-72
2021/08/25 07:28:20;;;;;;;11.00;7.80;;;;;;;19.04;74.17;97327.27;116203;1183;71385;-77
2021/08/25 07:30:51;;;;;;;10.40;7.40;;;;;;;19.13;74.16;97323.60;116169;1184;69285;-73
2021/08/25 07:33:25;;;;;;;14.60;7.20;;;;;;;19.21;73.76;97317.98;116160;1180;69197;-73
2021/08/25 07:35:59;;;;;;;11.20;7.20;;;;;;;19.28;73.37;97322.06;116228;1182;60001;-72
2021/08/25 07:38:30;;;;;;;9.10;7.10;;;;;;;19.37;73.17;97321.02;116279;1181;59889;-70
2021/08/25 07:41:01;;;;;;;11.70;7.10;;;;;;;19.46;73.06;97320.83;116233;1179;71379;-72
2021/08/25 07:43:32;;;;;;;11.40;7.30;;;;;;;19.46;72.09;97328.80;116204;1184;68742;-72
2021/08/25 07:46:03;;;;;;;9.60;6.80;;;;;;;19.49;72.34;97330.49;116333;1183;68382;-73
2021/08/25 07:48:33;;;;;;;8.00;6.20;;;;;;;19.45;71.36;97335.95;116233;1184;59549;-73
2021/08/25 07:51:14;;;;;;;10.00;7.10;;;;;;;19.27;70.38;97336.76;116150;1184;59559;-74
2021/08/25 07:53:44;;;;;;;;;;;;;;;19.16;71.28;97336.98;116301;1183;70197;-75
2021/08/25 07:56:15;;;;;;;10.60;6.50;;;;;;;19.06;72.19;97331.78;116239;1179;68397;-74
2021/08/25 07:58:46;;;;;;;10.40;6.90;;;;;;;18.95;72.71;97331.03;116261;1183;69339;-74
2021/08/25 08:01:16;;;;;;;11.70;7.50;;;;;;;18.89;72.69;97334.47;116258;1183;59553;-75
2021/08/25 08:03:48;;;;;;;8.90;6.80;;;;;;;18.84;72.82;97336.23;116209;1179;59603;-73
2021/08/25 08:06:20;;;;;;;9.10;7.30;;;;;;;18.80;72.95;97340.35;116223;1182;71319;-72
2021/08/25 08:08:50;;;;;;;8.60;6.70;;;;;;;18.73;72.93;97339.70;116316;1183;69563;-72
2021/08/25 08:11:21;;;;;;;10.30;7.00;;;;;;;18.68;73.33;97337.15;116363;1180;69003;-71
2021/08/25 08:13:52;;;;;;;8.60;6.60;;;;;;;18.66;74.03;97337.27;116238;1182;59619;-72
2021/08/25 08:16:23;;;;;;;9.60;6.90;;;;;;;18.65;74.41;97334.81;116238;1183;59666;-72
2021/08/25 08:19:03;;;;;;;8.50;6.50;;;;;;;18.68;74.00;97332.42;116233;1184;70229;-75
2021/08/25 08:21:35;;;;;;;9.10;6.90;;;;;;;18.72;74.21;97327.24;116257;1183;69226;-74
2021/08/25 08:24:06;;;;;;;9.40;6.60;;;;;;;18.79;73.94;97329.73;116182;1179;69193;-76
2021/08/25 08:26:37;;;;;;;8.00;6.40;;;;;;;18.83;73.06;97321.05;116141;1184;59505;-74
2021/08/25 08:29:08;;;;;;;10.00;6.80;;;;;;;18.81;72.72;97318.38;116177;1182;59546;-74
2021/08/25 08:31:39;;;;;;;10.40;6.90;;;;;;;18.86;72.33;97315.41;116139;1184;71395;-71
2021/08/25 08:34:09;;;;;;;8.40;6.50;;;;;;;18.97;73.04;97310.07;116136;1184;69711;-74
2021/08/25 08:36:41;;;;;;;11.10;7.00;;;;;;;19.08;72.73;97311.74;116056;1180;69323;-75
2021/08/25 08:39:17;;;;;;;12.70;7.40;;;;;;;19.07;72.45;97297.39;116002;1182;59492;-74
2021/08/25 08:41:48;;;;;;;9.50;6.80;;;;;;;19.11;72.52;97290.67;116124;1183;59998;-75
2021/08/25 08:44:20;;;;;;;10.50;6.90;;;;;;;19.19;72.27;97286.02;116162;1181;71360;-78
2021/08/25 08:46:52;;;;;;;8.50;6.40;;;;;;;19.19;71.74;97282.23;116111;1179;69189;-78
2021/08/25 08:49:25;;;;;;;9.20;6.20;;;;;;;19.24;71.55;97282.39;116131;1184;68461;-76
2021/08/25 08:51:57;;;;;;;9.20;6.10;;;;;;;19.33;71.74;97284.25;116005;1184;59560;-78
2021/08/25 08:54:31;;;;;;;9.30;6.20;;;;;;;19.41;71.71;97282.62;116142;1180;59566;-76
2021/08/25 08:57:03;;;;;;;7.20;5.60;;;;;;;19.49;71.65;97281.84;116178;1180;70683;-78
2021/08/25 08:59:34;;;;;;;7.70;5.90;;;;;;;19.58;71.40;97279.77;116131;1179;68682;-77
2021/08/25 09:02:05;;;;;;;11.00;6.20;;;;;;;19.65;70.79;97271.98;116193;1184;69040;-74
2021/08/25 09:04:46;;;;;;;12.10;7.50;;;;;;;19.62;70.31;97275.55;116106;1180;59512;-77
2021/08/25 09:07:19;;;;;;;10.70;8.00;;;;;;;19.58;70.58;97277.98;116177;1181;59533;-76
2021/08/25 09:09:55;;;;;;;13.20;8.30;;;;;;;19.50;70.67;97283.85;116182;1184;71299;-79
2021/08/25 09:12:27;;;;;;;11.70;6.80;;;;;;;19.40;70.91;97283.67;116120;1184;68580;-76
2021/08/25 09:15:25;;;;;;;13.20;8.90;;;;;;;19.26;71.40;97275.70;116052;1184;68469;-73
2021/08/25 09:18:06;;;;;;;13.10;9.10;;;;;;;19.11;71.95;97277.11;116120;1181;59547;-77
2021/08/25 09:20:46;;;;;;;11.30;8.70;;;;;;;18.96;72.91;97266.66;116175;1179;59517;-78
2021/08/25 09:23:26;;;;;;;15.60;8.80;;;;;;;18.88;72.90;97273.71;116117;1184;71136;-79
2021/08/25 09:26:00;;;;;;;11.70;7.80;;;;;;;18.88;73.38;97269.73;115982;1181;69666;-76
2021/08/25 09:28:37;;;;;;;11.40;8.70;;;;;;;18.85;73.78;97267.51;116134;1184;68670;-73
2021/08/25 09:31:13;;;;;;;11.80;8.40;;;;;;;18.79;74.69;97265.52;116128;1182;59478;-75
2021/08/25 09:33:48;;;;;;;17.30;9.70;;;;;;;18.73;74.92;97274.41;116077;1181;59557;-76
2021/08/25 09:36:19;;;;;;;10.20;7.80;;;;;;;18.67;74.57;97274.48;116217;1181;71197;-81
2021/08/25 09:38:55;;;;;;;11.20;8.40;;;;;;;18.60;75.07;97271.06;116152;1183;68269;-76
2021/08/25 09:41:26;;;;;;;13.20;8.30;;;;;;;18.64;75.64;97275.09;116173;1184;68524;-74
2021/08/25 09:43:57;;;;;;;12.80;8.70;;;;;;;18.65;75.50;97277.60;116034;1184;59494;-76
2021/08/25 09:46:28;;;;;;;11.50;8.40;;;;;;;18.65;75.53;97272.95;116196;1180;59544;-76
2021/08/25 09:49:00;;;;;;;12.00;8.70;;;;;;;18.62;76.24;97269.50;115945;1182;70697;-77
2021/08/25 09:51:39;;;;;;;11.00;8.20;;;;;;;18.65;76.20;97263.94;116201;1179;69173;-78
2021/08/25 09:54:16;;;;;;;11.70;9.10;;;;;;;18.59;76.64;97261.13;116146;1184;68391;-77
2021/08/25 09:56:54;;;;;;;14.70;9.50;;;;;;;18.57;76.87;97262.73;116171;1181;59546;-78
2021/08/25 09:59:25;;;;;;;11.70;8.30;;;;;;;18.56;76.86;97265.02;116172;1182;59540;-73
2021/08/25 10:01:56;;;;;;;11.10;8.10;;;;;;;18.55;76.82;97266.04;116128;1184;70505;-75
2021/08/25 10:04:35;;;;;;;11.50;7.80;;;;;;;18.60;76.71;97256.39;116123;1183;68379;-75
2021/08/25 10:07:06;;;;;;;12.00;8.30;;;;;;;18.69;76.42;97255.73;116154;1183;69054;-74
2021/08/25 10:09:37;;;;;;;10.70;8.60;;;;;;;18.85;75.88;97251.23;116069;1184;59600;-77
2021/08/25 10:12:15;;;;;;;10.70;8.10;;;;;;;19.07;75.89;97249.78;116151;1182;59482;-78
2021/08/25 10:14:45;;;;;;;9.40;7.30;;;;;;;19.34;75.39;97254.15;116186;1179;71417;-77
2021/08/25 10:17:39;;;;;;;11.00;7.40;;;;;;;19.62;75.00;97254.64;116166;1184;69319;-78
2021/08/25 10:20:35;;;;;;;10.70;7.10;;;;;;;19.89;72.96;97253.61;115895;1185;68543;-79
2021/08/25 10:23:05;;;;;;;11.80;7.30;;;;;;;20.12;72.53;97252.48;116101;1179;59575;-78
2021/08/25 10:26:07;;;;;;;12.10;6.50;;;;;;;20.26;71.03;97248.69;116119;1184;59465;-75
2021/08/25 10:29:00;;;;;;;8.90;6.60;;;;;;;20.36;70.42;97246.81;116191;1179;71350;-78
2021/08/25 10:31:49;;;;;;;9.60;7.10;;;;;;;20.36;69.44;97240.63;116063;1184;68415;-76
2021/08/25 10:34:27;;;;;;;11.70;7.00;;;;;;;20.35;69.08;97236.59;116059;1180;69037;-78
2021/08/25 10:37:10;;;;;;;11.00;6.60;;;;;;;20.23;69.19;97231.77;116101;1184;59504;-80
2021/08/25 10:39:42;;;;;;;10.20;7.30;;;;;;;20.20;69.55;97233.71;116140;1184;59549;-76
2021/08/25 10:42:14;;;;;;;9.90;6.30;;;;;;;20.21;69.30;97230.04;116267;1184;71241;-78
2021/08/25 10:44:47;;;;;;;9.50;7.00;;;;;;;20.26;69.64;97227.33;116318;1179;69493;-77
2021/08/25 10:47:18;;;;;;;8.90;6.30;;;;;;;20.38;69.52;97222.63;116250;1181;69196;-76
2021/08/25 10:49:49;;;;;;;8.60;6.80;;;;;;;20.45;69.07;97218.70;116199;1184;59940;-74
2021/08/25 10:52:20;;;;;;;10.70;6.80;;;;;;;20.73;69.12;97213.48;116199;1182;59549;-78
2021/08/25 10:54:52;;;;;;;8.40;6.40;;;;;;;21.03;67.91;97204.30;116255;1181;71338;-77
2021/08/25 10:57:28;;;;;;;8.80;6.40;;;;;;;21.21;66.77;97203.32;116171;1184;69644;-80
2021/08/25 11:00:10;;;;;;;10.20;6.90;;;;;;;21.35;66.67;97203.23;116116;1179;69238;-78
2021/08/25 11:02:41;;;;;;;9.10;6.60;;;;;;;21.51;66.24;97206.95;116185;1179;59554;-76
2021/08/25 11:05:13;;;;;;;8.10;6.60;;;;;;;21.57;65.57;97204.46;116212;1184;59514;-78
2021/08/25 11:07:47;;;;;;;11.30;6.70;;;;;;;21.59;64.71;97201.33;116024;1180;71340;-77
2021/08/25 11:10:23;;;;;;;8.60;6.10;;;;;;;21.53;64.54;97197.30;115988;1184;69374;-77
2021/08/25 11:12:54;;;;;;;10.40;6.70;;;;;;;21.47;64.40;97187.30;116119;1184;69287;-77
2021/08/25 11:15:32;;;;;;;10.40;6.40;;;;;;;21.50;64.87;97181.60;116130;1179;59569;-79
2021/08/25 11:18:03;;;;;;;8.20;6.20;;;;;;;21.49;64.50;97182.64;115989;1184;59539;-78
2021/08/25 11:20:37;;;;;;;9.80;6.50;;;;;;;21.48;64.21;97188.68;116199;1184;71349;-74
2021/08/25 11:23:08;;;;;;;9.40;6.60;;;;;;;21.43;63.98;97192.20;116235;1184;68450;-75
2021/08/25 11:25:52;;;;;;;7.90;6.10;;;;;;;21.46;64.35;97201.24;116182;1183;69088;-75
2021/08/25 11:28:23;;;;;;;8.80;6.30;;;;;;;21.53;63.99;97202.29;116255;1182;59538;-75
2021/08/25 11:30:53;;;;;;;7.80;6.30;;;;;;;21.70;63.68;97201.63;116169;1179;59527;-74
2021/08/25 11:33:25;;;;;;;12.30;6.60;;;;;;;21.85;62.92;97200.50;116223;1183;70211;-76
2021/08/25 11:36:03;;;;;;;7.60;6.10;;;;;;;21.94;63.31;97208.92;116228;1179;68416;-76
2021/08/25 11:38:36;;;;;;;10.50;6.20;;;;;;;21.93;62.00;97208.36;116215;1179;69220;-74
2021/08/25 11:41:06;;;;;;;7.40;6.10;;;;;;;21.82;62.08;97200.73;116275;1178;59504;-79